KBWI/BWI METAR and TAF weather

Enter ICAO airport designator
Station Type Date Time Source
KBWI METAR 2019/02/23 16:54 UTC NOAA

KBWI 231654Z 08005KT 10SM BKN085 BKN110 OVC250 04/M03 A3043 RMK AO2 SLP303 T00391028


Station Type Date Time Source
KBWI Decoded METAR 2019/02/23 16:54 UTC NOAA

BALTIMORE-WASHINGTON INTERNATIONAL , MD, United States (KBWI) 39-10N 076-41W 59M
Feb 23, 2019 - 11:54 AM EST / 2019.02.23 1654 UTC
Wind: from the E (080 degrees) at 6 MPH (5 KT):0
Visibility: 10 mile(s):0
Sky conditions: overcast
Temperature: 39.0 F (3.9 C)
Dew Point: 27.0 F (-2.8 C)
Relative Humidity: 61%
Pressure (altimeter): 30.43 in. Hg (1030 hPa)
ob: KBWI 231654Z 08005KT 10SM BKN085 BKN110 OVC250 04/M03 A3043 RMK AO2 SLP303 T00391028
cycle: 17

Station Type Date Time Source
KBWI TAF 2019/02/23 15:03 UTC NOAA

TAF
AMD KBWI 231500Z 2315/2418 08008KT P6SM SCT080 OVC130
FM231800 12004KT 6SM -RA OVC060
FM232100 11005KT 5SM -RA OVC030
FM232300 10005KT 5SM -RA OVC015
FM240000 09005KT 4SM -RA OVC008
FM240300 10005KT 3SM RA OVC008
FM241700 22012G21KT P6SM BKN025


Example: see airport list